Home > Products > Valid Products > TAF

000
FTUS43 KOAX 202320
TAFLNK
TAF
KLNK 202320Z 2100/2124 30016G25KT P6SM BKN100
     FM210200 29006KT P6SM SCT100
     FM211500 29013KT P6SM SCT250
     FM211800 31015G24KT P6SM SCT250=



000
FTUS43 KOAX 202320
TAFOMA
TAF
KOMA 202320Z 2100/2124 30018G28KT P6SM FEW100
     FM210200 28008KT P6SM SKC
     FM211500 30013KT P6SM SCT100
     FM211800 31014G22KT P6SM BKN250=



000
FTUS43 KOAX 202320
TAFOMA
TAF
KOMA 202320Z 2100/2124 30018G28KT P6SM FEW100
     FM210200 28008KT P6SM SKC
     FM211500 30013KT P6SM SCT100
     FM211800 31014G22KT P6SM BKN250=



000
FTUS43 KOAX 202320
TAFOFK
TAF
KOFK 202320Z 2100/2124 31018G28KT P6SM SCT100
     FM210200 29008KT P6SM SKC
     FM211500 30014G22KT P6SM SCT100
     FM211800 32016G25KT P6SM SCT250=



000
FTUS43 KOAX 202320
TAFLNK
TAF
KLNK 202320Z 2100/2124 30016G25KT P6SM BKN100
     FM210200 29006KT P6SM SCT100
     FM211500 29013KT P6SM SCT250
     FM211800 31015G24KT P6SM SCT250=



000
FTUS43 KOAX 202320
TAFOFK
TAF
KOFK 202320Z 2100/2124 31018G28KT P6SM SCT100
     FM210200 29008KT P6SM SKC
     FM211500 30014G22KT P6SM SCT100
     FM211800 32016G25KT P6SM SCT250=



000
FTUS43 KOAX 202320
TAFOMA
TAF
KOMA 202320Z 2100/2124 30018G28KT P6SM FEW100
     FM210200 28008KT P6SM SKC
     FM211500 30013KT P6SM SCT100
     FM211800 31014G22KT P6SM BKN250=



000
FTUS43 KOAX 202320
TAFLNK
TAF
KLNK 202320Z 2100/2124 30016G25KT P6SM BKN100
     FM210200 29006KT P6SM SCT100
     FM211500 29013KT P6SM SCT250
     FM211800 31015G24KT P6SM SCT250=



000
FTUS43 KOAX 202320
TAFOFK
TAF
KOFK 202320Z 2100/2124 31018G28KT P6SM SCT100
     FM210200 29008KT P6SM SKC
     FM211500 30014G22KT P6SM SCT100
     FM211800 32016G25KT P6SM SCT250=



000
FTUS43 KOAX 202320
TAFOMA
TAF
KOMA 202320Z 2100/2124 30018G28KT P6SM FEW100
     FM210200 28008KT P6SM SKC
     FM211500 30013KT P6SM SCT100
     FM211800 31014G22KT P6SM BKN250=



000
FTUS43 KOAX 202320
TAFOFK
TAF
KOFK 202320Z 2100/2124 31018G28KT P6SM SCT100
     FM210200 29008KT P6SM SKC
     FM211500 30014G22KT P6SM SCT100
     FM211800 32016G25KT P6SM SCT250=



000
FTUS43 KOAX 202320
TAFLNK
TAF
KLNK 202320Z 2100/2124 30016G25KT P6SM BKN100
     FM210200 29006KT P6SM SCT100
     FM211500 29013KT P6SM SCT250
     FM211800 31015G24KT P6SM SCT250=



000
FTUS43 KOAX 201721
TAFOFK
TAF
KOFK 201721Z 2018/2118 31025G35KT P6SM FEW070
     FM210000 31018G26KT P6SM SCT070
     FM210200 27008KT P6SM SCT070
     FM211500 30014G22KT P6SM SCT100=



000
FTUS43 KOAX 201721
TAFOMA
TAF
KOMA 201721Z 2018/2118 30023G33KT P6SM SCT050
     FM210000 30014KT P6SM FEW070
     FM210200 28008KT P6SM SCT070
     FM211500 29013G22KT P6SM SCT100=



000
FTUS43 KOAX 201721
TAFOFK
TAF
KOFK 201721Z 2018/2118 31025G35KT P6SM FEW070
     FM210000 31018G26KT P6SM SCT070
     FM210200 27008KT P6SM SCT070
     FM211500 30014G22KT P6SM SCT100=



000
FTUS43 KOAX 201721
TAFLNK
TAF
KLNK 201721Z 2018/2118 30023G33KT P6SM FEW070
     FM210000 30014KT P6SM FEW070
     FM210200 28008KT P6SM SCT070
     FM211500 29013G22KT P6SM SCT100=



000
FTUS43 KOAX 201721
TAFOFK
TAF
KOFK 201721Z 2018/2118 31025G35KT P6SM FEW070
     FM210000 31018G26KT P6SM SCT070
     FM210200 27008KT P6SM SCT070
     FM211500 30014G22KT P6SM SCT100=



000
FTUS43 KOAX 201721
TAFOMA
TAF
KOMA 201721Z 2018/2118 30023G33KT P6SM SCT050
     FM210000 30014KT P6SM FEW070
     FM210200 28008KT P6SM SCT070
     FM211500 29013G22KT P6SM SCT100=



000
FTUS43 KOAX 201721
TAFOFK
TAF
KOFK 201721Z 2018/2118 31025G35KT P6SM FEW070
     FM210000 31018G26KT P6SM SCT070
     FM210200 27008KT P6SM SCT070
     FM211500 30014G22KT P6SM SCT100=



000
FTUS43 KOAX 201721
TAFOMA
TAF
KOMA 201721Z 2018/2118 30023G33KT P6SM SCT050
     FM210000 30014KT P6SM FEW070
     FM210200 28008KT P6SM SCT070
     FM211500 29013G22KT P6SM SCT100=



000
FTUS43 KOAX 201721
TAFLNK
TAF
KLNK 201721Z 2018/2118 30023G33KT P6SM FEW070
     FM210000 30014KT P6SM FEW070
     FM210200 28008KT P6SM SCT070
     FM211500 29013G22KT P6SM SCT100=



000
FTUS43 KOAX 201721
TAFLNK
TAF
KLNK 201721Z 2018/2118 30023G33KT P6SM FEW070
     FM210000 30014KT P6SM FEW070
     FM210200 28008KT P6SM SCT070
     FM211500 29013G22KT P6SM SCT100=



000
FTUS43 KOAX 201721
TAFOMA
TAF
KOMA 201721Z 2018/2118 30023G33KT P6SM SCT050
     FM210000 30014KT P6SM FEW070
     FM210200 28008KT P6SM SCT070
     FM211500 29013G22KT P6SM SCT100=



000
FTUS43 KOAX 201721
TAFLNK
TAF
KLNK 201721Z 2018/2118 30023G33KT P6SM FEW070
     FM210000 30014KT P6SM FEW070
     FM210200 28008KT P6SM SCT070
     FM211500 29013G22KT P6SM SCT100=



000
FTUS43 KOAX 201252 AAA
TAFLNK
TAF AMD
KLNK 201252Z 2013/2112 30012KT P6SM SCT070
     FM201500 31017G28KT P6SM SKC
     FM210100 28010KT P6SM SKC=



000
FTUS43 KOAX 201252 AAA
TAFLNK
TAF AMD
KLNK 201252Z 2013/2112 30012KT P6SM SCT070
     FM201500 31017G28KT P6SM SKC
     FM210100 28010KT P6SM SKC=



000
FTUS43 KOAX 201252 AAA
TAFLNK
TAF AMD
KLNK 201252Z 2013/2112 30012KT P6SM SCT070
     FM201500 31017G28KT P6SM SKC
     FM210100 28010KT P6SM SKC=



000
FTUS43 KOAX 201252 AAA
TAFLNK
TAF AMD
KLNK 201252Z 2013/2112 30012KT P6SM SCT070
     FM201500 31017G28KT P6SM SKC
     FM210100 28010KT P6SM SKC=



000
FTUS43 KOAX 201120
TAFLNK
TAF
KLNK 201120Z 2012/2112 31012KT P6SM SCT070
     FM201500 31017G28KT P6SM SKC
     FM210100 28010KT P6SM SKC=



000
FTUS43 KOAX 201120
TAFOMA
TAF
KOMA 201120Z 2012/2112 31014KT P6SM SCT070
     FM201500 31015G25KT P6SM SKC
     FM210000 28010KT P6SM SKC=



000
FTUS43 KOAX 201120
TAFOFK
TAF
KOFK 201120Z 2012/2112 31015KT P6SM SCT060
     FM201500 31018G30KT P6SM SKC
     FM210100 29010KT P6SM SCT060=



000
FTUS43 KOAX 201120
TAFLNK
TAF
KLNK 201120Z 2012/2112 31012KT P6SM SCT070
     FM201500 31017G28KT P6SM SKC
     FM210100 28010KT P6SM SKC=



000
FTUS43 KOAX 201120
TAFOMA
TAF
KOMA 201120Z 2012/2112 31014KT P6SM SCT070
     FM201500 31015G25KT P6SM SKC
     FM210000 28010KT P6SM SKC=



000
FTUS43 KOAX 201120
TAFOFK
TAF
KOFK 201120Z 2012/2112 31015KT P6SM SCT060
     FM201500 31018G30KT P6SM SKC
     FM210100 29010KT P6SM SCT060=



000
FTUS43 KOAX 200520
TAFOFK
TAF
KOFK 200520Z 2006/2106 33013G22KT P6SM SCT080
     FM201000 31012KT P6SM BKN040
     FM201400 31020G30KT P6SM SCT040
     FM201600 31024G34KT P6SM FEW050
     FM202300 31020G28KT P6SM BKN080=



000
FTUS43 KOAX 200520
TAFOMA
TAF
KOMA 200520Z 2006/2106 33015G23KT P6SM SCT100
     FM200900 32014KT P6SM SCT035
      TEMPO 2013/2015 BKN035
     FM201500 31020G30KT P6SM SCT035
     FM201800 32022G32KT P6SM SCT100
     FM210000 32018G26KT P6SM BKN080=



000
FTUS43 KOAX 200520
TAFOMA
TAF
KOMA 200520Z 2006/2106 33015G23KT P6SM SCT100
     FM200900 32014KT P6SM SCT035
      TEMPO 2013/2015 BKN035
     FM201500 31020G30KT P6SM SCT035
     FM201800 32022G32KT P6SM SCT100
     FM210000 32018G26KT P6SM BKN080=



000
FTUS43 KOAX 200520
TAFOFK
TAF
KOFK 200520Z 2006/2106 33013G22KT P6SM SCT080
     FM201000 31012KT P6SM BKN040
     FM201400 31020G30KT P6SM SCT040
     FM201600 31024G34KT P6SM FEW050
     FM202300 31020G28KT P6SM BKN080=



000
FTUS43 KOAX 200520
TAFOFK
TAF
KOFK 200520Z 2006/2106 33013G22KT P6SM SCT080
     FM201000 31012KT P6SM BKN040
     FM201400 31020G30KT P6SM SCT040
     FM201600 31024G34KT P6SM FEW050
     FM202300 31020G28KT P6SM BKN080=



000
FTUS43 KOAX 200520
TAFOMA
TAF
KOMA 200520Z 2006/2106 33015G23KT P6SM SCT100
     FM200900 32014KT P6SM SCT035
      TEMPO 2013/2015 BKN035
     FM201500 31020G30KT P6SM SCT035
     FM201800 32022G32KT P6SM SCT100
     FM210000 32018G26KT P6SM BKN080=



000
FTUS43 KOAX 200520
TAFLNK
TAF
KLNK 200520Z 2006/2106 32014KT P6SM SKC
     FM201000 31012KT P6SM FEW100
     FM201500 31020G30KT P6SM SCT040
     FM201800 32022G32KT P6SM SCT100
     FM210000 31017G25KT P6SM BKN090=



000
FTUS43 KOAX 200520
TAFLNK
TAF
KLNK 200520Z 2006/2106 32014KT P6SM SKC
     FM201000 31012KT P6SM FEW100
     FM201500 31020G30KT P6SM SCT040
     FM201800 32022G32KT P6SM SCT100
     FM210000 31017G25KT P6SM BKN090=



000
FTUS43 KOAX 200520
TAFOMA
TAF
KOMA 200520Z 2006/2106 33015G23KT P6SM SCT100
     FM200900 32014KT P6SM SCT035
      TEMPO 2013/2015 BKN035
     FM201500 31020G30KT P6SM SCT035
     FM201800 32022G32KT P6SM SCT100
     FM210000 32018G26KT P6SM BKN080=



000
FTUS43 KOAX 200520
TAFLNK
TAF
KLNK 200520Z 2006/2106 32014KT P6SM SKC
     FM201000 31012KT P6SM FEW100
     FM201500 31020G30KT P6SM SCT040
     FM201800 32022G32KT P6SM SCT100
     FM210000 31017G25KT P6SM BKN090=



000
FTUS43 KOAX 200520
TAFOFK
TAF
KOFK 200520Z 2006/2106 33013G22KT P6SM SCT080
     FM201000 31012KT P6SM BKN040
     FM201400 31020G30KT P6SM SCT040
     FM201600 31024G34KT P6SM FEW050
     FM202300 31020G28KT P6SM BKN080=



000
FTUS43 KOAX 200520
TAFLNK
TAF
KLNK 200520Z 2006/2106 32014KT P6SM SKC
     FM201000 31012KT P6SM FEW100
     FM201500 31020G30KT P6SM SCT040
     FM201800 32022G32KT P6SM SCT100
     FM210000 31017G25KT P6SM BKN090=



000
FTUS43 KOAX 200428 AAA
TAFOFK
TAF AMD
KOFK 200428Z 2004/2024 33013G22KT P6SM SCT080
     FM201000 31012KT P6SM BKN040
     FM201400 31020G30KT P6SM SCT040
     FM201600 31024G34KT P6SM FEW050
     FM202300 31020G28KT P6SM BKN080=



000
FTUS43 KOAX 200428 AAA
TAFOFK
TAF AMD
KOFK 200428Z 2004/2024 33013G22KT P6SM SCT080
     FM201000 31012KT P6SM BKN040
     FM201400 31020G30KT P6SM SCT040
     FM201600 31024G34KT P6SM FEW050
     FM202300 31020G28KT P6SM BKN080=



000
FTUS43 KOAX 200428 AAA
TAFOFK
TAF AMD
KOFK 200428Z 2004/2024 33013G22KT P6SM SCT080
     FM201000 31012KT P6SM BKN040
     FM201400 31020G30KT P6SM SCT040
     FM201600 31024G34KT P6SM FEW050
     FM202300 31020G28KT P6SM BKN080=



000
FTUS43 KOAX 200428 AAA
TAFOFK
TAF AMD
KOFK 200428Z 2004/2024 33013G22KT P6SM SCT080
     FM201000 31012KT P6SM BKN040
     FM201400 31020G30KT P6SM SCT040
     FM201600 31024G34KT P6SM FEW050
     FM202300 31020G28KT P6SM BKN080=



000
FTUS43 KOAX 200422 AAB
TAFLNK
TAF AMD
KLNK 200422Z 2004/2024 32014KT P6SM SKC
     FM201000 31012KT P6SM FEW100
     FM201500 31020G30KT P6SM SCT040
     FM201800 32022G32KT P6SM SCT100=



000
FTUS43 KOAX 200422 AAB
TAFLNK
TAF AMD
KLNK 200422Z 2004/2024 32014KT P6SM SKC
     FM201000 31012KT P6SM FEW100
     FM201500 31020G30KT P6SM SCT040
     FM201800 32022G32KT P6SM SCT100=



000
FTUS43 KOAX 200419 AAA
TAFOMA
TAF AMD
KOMA 200419Z 2004/2024 33015G23KT P6SM SCT100
     FM200900 32014KT P6SM SCT035
      TEMPO 2013/2015 BKN035
     FM201500 31020G30KT P6SM SCT035
     FM201800 32022G32KT P6SM SCT100=



000
FTUS43 KOAX 200419 AAA
TAFOMA
TAF AMD
KOMA 200419Z 2004/2024 33015G23KT P6SM SCT100
     FM200900 32014KT P6SM SCT035
      TEMPO 2013/2015 BKN035
     FM201500 31020G30KT P6SM SCT035
     FM201800 32022G32KT P6SM SCT100=



000
FTUS43 KOAX 200419 AAA
TAFOMA
TAF AMD
KOMA 200419Z 2004/2024 33015G23KT P6SM SCT100
     FM200900 32014KT P6SM SCT035
      TEMPO 2013/2015 BKN035
     FM201500 31020G30KT P6SM SCT035
     FM201800 32022G32KT P6SM SCT100=



000
FTUS43 KOAX 200419 AAA
TAFOMA
TAF AMD
KOMA 200419Z 2004/2024 33015G23KT P6SM SCT100
     FM200900 32014KT P6SM SCT035
      TEMPO 2013/2015 BKN035
     FM201500 31020G30KT P6SM SCT035
     FM201800 32022G32KT P6SM SCT100=



000
FTUS43 KOAX 200112 AAA
TAFLNK
TAF AMD
KLNK 200112Z 2001/2024 34016G26KT P6SM BKN070
     FM200200 32013G20KT P6SM SCT070
     FM200700 32012KT P6SM SCT040
     FM201500 31020G30KT P6SM SCT040=



000
FTUS43 KOAX 200112 AAA
TAFLNK
TAF AMD
KLNK 200112Z 2001/2024 34016G26KT P6SM BKN070
     FM200200 32013G20KT P6SM SCT070
     FM200700 32012KT P6SM SCT040
     FM201500 31020G30KT P6SM SCT040=



000
FTUS43 KOAX 200112 AAA
TAFLNK
TAF AMD
KLNK 200112Z 2001/2024 34016G26KT P6SM BKN070
     FM200200 32013G20KT P6SM SCT070
     FM200700 32012KT P6SM SCT040
     FM201500 31020G30KT P6SM SCT040=



000
FTUS43 KOAX 200112 AAA
TAFLNK
TAF AMD
KLNK 200112Z 2001/2024 34016G26KT P6SM BKN070
     FM200200 32013G20KT P6SM SCT070
     FM200700 32012KT P6SM SCT040
     FM201500 31020G30KT P6SM SCT040=



000
FTUS43 KOAX 192320
TAFOMA
TAF
KOMA 192320Z 2000/2024 33015G25KT P6SM BKN060
     FM200200 32013KT P6SM SCT050
     FM200700 32014KT P6SM SCT035
      TEMPO 2009/2012 BKN035
     FM201500 31020G30KT P6SM SCT040=



000
FTUS43 KOAX 192320
TAFOFK
TAF
KOFK 192320Z 2000/2024 33017G25KT P6SM BKN060
     FM200200 31014KT P6SM SCT050
     FM200700 31012KT P6SM BKN040
     FM201200 31014G24KT P6SM SCT040
     FM201600 31024G34KT P6SM SCT050=



000
FTUS43 KOAX 192320
TAFOFK
TAF
KOFK 192320Z 2000/2024 33017G25KT P6SM BKN060
     FM200200 31014KT P6SM SCT050
     FM200700 31012KT P6SM BKN040
     FM201200 31014G24KT P6SM SCT040
     FM201600 31024G34KT P6SM SCT050=



000
FTUS43 KOAX 192320
TAFLNK
TAF
KLNK 192320Z 2000/2024 34014G24KT P6SM BKN070
     FM200200 32013KT P6SM SCT070
     FM200700 32012KT P6SM SCT040
     FM201500 31020G30KT P6SM SCT040=



000
FTUS43 KOAX 192320
TAFOMA
TAF
KOMA 192320Z 2000/2024 33015G25KT P6SM BKN060
     FM200200 32013KT P6SM SCT050
     FM200700 32014KT P6SM SCT035
      TEMPO 2009/2012 BKN035
     FM201500 31020G30KT P6SM SCT040=



000
FTUS43 KOAX 192320
TAFLNK
TAF
KLNK 192320Z 2000/2024 34014G24KT P6SM BKN070
     FM200200 32013KT P6SM SCT070
     FM200700 32012KT P6SM SCT040
     FM201500 31020G30KT P6SM SCT040=



000
FTUS43 KOAX 192245 AAA
TAFOFK
TAF AMD
KOFK 192245Z 1923/2018 33024G32KT P6SM BKN060
     FM200100 31014KT P6SM SCT050
     FM200700 31012KT P6SM BKN040
     FM201200 31014G24KT P6SM SCT040
     FM201600 31024G34KT P6SM SCT050=



000
FTUS43 KOAX 192245 AAA
TAFOFK
TAF AMD
KOFK 192245Z 1923/2018 33024G32KT P6SM BKN060
     FM200100 31014KT P6SM SCT050
     FM200700 31012KT P6SM BKN040
     FM201200 31014G24KT P6SM SCT040
     FM201600 31024G34KT P6SM SCT050=



000
FTUS43 KOAX 192235 AAA
TAFLNK
TAF AMD
KLNK 192235Z 1923/2018 34014G24KT P6SM BKN050
     FM200100 32013KT P6SM SCT070
     FM200700 32012KT P6SM SCT040
     FM201500 31020G30KT P6SM SCT100=



000
FTUS43 KOAX 192121 AAB
TAFOMA
TAF AMD
KOMA 192121Z 1921/2018 33020G30KT P6SM SCT020 OVC050
      TEMPO 1921/1923 6SM -SHRA
     FM192300 33015G25KT P6SM BKN050
     FM200300 32013KT P6SM SCT030
      TEMPO 2009/2012 BKN030
     FM201500 31020G30KT P6SM SCT100=



000
FTUS43 KOAX 192121 AAB
TAFOMA
TAF AMD
KOMA 192121Z 1921/2018 33020G30KT P6SM SCT020 OVC050
      TEMPO 1921/1923 6SM -SHRA
     FM192300 33015G25KT P6SM BKN050
     FM200300 32013KT P6SM SCT030
      TEMPO 2009/2012 BKN030
     FM201500 31020G30KT P6SM SCT100=



000
FTUS43 KOAX 192043 AAA
TAFOMA
TAF AMD
KOMA 192043Z 1921/2018 33018G28KT P6SM -SHRA BKN015 OVC025
     FM192200 33018G28KT P6SM OVC035
     FM200100 32013KT P6SM BKN070
     FM201500 31020G30KT P6SM SCT100=



000
FTUS43 KOAX 191720
TAFOFK
TAF
KOFK 191720Z 1918/2018 33024G32KT P6SM OVC070
      TEMPO 1918/1920 BKN028
     FM200100 31014KT P6SM SCT070
     FM201400 31024G34KT P6SM SCT100=



000
FTUS43 KOAX 191720
TAFOFK
TAF
KOFK 191720Z 1918/2018 33024G32KT P6SM OVC070
      TEMPO 1918/1920 BKN028
     FM200100 31014KT P6SM SCT070
     FM201400 31024G34KT P6SM SCT100=



000
FTUS43 KOAX 191720
TAFOMA
TAF
KOMA 191720Z 1918/2018 33015G25KT P6SM -SHRA BKN015 OVC025
     FM192100 33017G25KT P6SM OVC035
     FM200100 32013KT P6SM BKN070
     FM201500 31020G30KT P6SM SCT100=



000
FTUS43 KOAX 191720
TAFLNK
TAF
KLNK 191720Z 1918/2018 33020G28KT P6SM SCT025 BKN050
      TEMPO 1918/1920 BKN025
     FM200100 32013KT P6SM BKN070
     FM201500 31020G30KT P6SM SCT100=



000
FTUS43 KOAX 191720
TAFOMA
TAF
KOMA 191720Z 1918/2018 33015G25KT P6SM -SHRA BKN015 OVC025
     FM192100 33017G25KT P6SM OVC035
     FM200100 32013KT P6SM BKN070
     FM201500 31020G30KT P6SM SCT100=



000
FTUS43 KOAX 191720
TAFOMA
TAF
KOMA 191720Z 1918/2018 33015G25KT P6SM -SHRA BKN015 OVC025
     FM192100 33017G25KT P6SM OVC035
     FM200100 32013KT P6SM BKN070
     FM201500 31020G30KT P6SM SCT100=



000
FTUS43 KOAX 191720
TAFLNK
TAF
KLNK 191720Z 1918/2018 33020G28KT P6SM SCT025 BKN050
      TEMPO 1918/1920 BKN025
     FM200100 32013KT P6SM BKN070
     FM201500 31020G30KT P6SM SCT100=



000
FTUS43 KOAX 191720
TAFLNK
TAF
KLNK 191720Z 1918/2018 33020G28KT P6SM SCT025 BKN050
      TEMPO 1918/1920 BKN025
     FM200100 32013KT P6SM BKN070
     FM201500 31020G30KT P6SM SCT100=



000
FTUS43 KOAX 191720
TAFLNK
TAF
KLNK 191720Z 1918/2018 33020G28KT P6SM SCT025 BKN050
      TEMPO 1918/1920 BKN025
     FM200100 32013KT P6SM BKN070
     FM201500 31020G30KT P6SM SCT100=



000
FTUS43 KOAX 191720
TAFOFK
TAF
KOFK 191720Z 1918/2018 33024G32KT P6SM OVC070
      TEMPO 1918/1920 BKN028
     FM200100 31014KT P6SM SCT070
     FM201400 31024G34KT P6SM SCT100=



000
FTUS43 KOAX 191720
TAFOMA
TAF
KOMA 191720Z 1918/2018 33015G25KT P6SM -SHRA BKN015 OVC025
     FM192100 33017G25KT P6SM OVC035
     FM200100 32013KT P6SM BKN070
     FM201500 31020G30KT P6SM SCT100=



000
FTUS43 KOAX 191720
TAFOFK
TAF
KOFK 191720Z 1918/2018 33024G32KT P6SM OVC070
      TEMPO 1918/1920 BKN028
     FM200100 31014KT P6SM SCT070
     FM201400 31024G34KT P6SM SCT100=



000
FTUS43 KOAX 191413 AAB
TAFOMA
TAF AMD
KOMA 191413Z 1914/2012 33012KT 3SM -RA BKN010 OVC035
     FM191700 33014G22KT P6SM SCT015 OVC025
     FM200100 33010KT P6SM SKC=



000
FTUS43 KOAX 191254 AAA
TAFLNK
TAF AMD
KLNK 191254Z 1913/2012 33010KT 5SM -RA BKN015 OVC060
     FM191600 33014G24KT P6SM SCT015 BKN050
      TEMPO 1916/1920 4SM -RA BKN015
     FM200100 33010KT P6SM SKC=



000
FTUS43 KOAX 191246 AAA
TAFOMA
TAF AMD
KOMA 191246Z 1913/2012 VRB05KT 1SM -RA BR OVC004
     FM191400 33012KT 4SM -RA SCT015 OVC060
     FM191700 33014G22KT P6SM SCT015 OVC025
     FM200100 33010KT P6SM SKC=



000
FTUS43 KOAX 191246 AAA
TAFOMA
TAF AMD
KOMA 191246Z 1913/2012 VRB05KT 1SM -RA BR OVC004
     FM191400 33012KT 4SM -RA SCT015 OVC060
     FM191700 33014G22KT P6SM SCT015 OVC025
     FM200100 33010KT P6SM SKC=



000
FTUS43 KOAX 191246 AAA
TAFOMA
TAF AMD
KOMA 191246Z 1913/2012 VRB05KT 1SM -RA BR OVC004
     FM191400 33012KT 4SM -RA SCT015 OVC060
     FM191700 33014G22KT P6SM SCT015 OVC025
     FM200100 33010KT P6SM SKC=



000
FTUS43 KOAX 191133
TAFOMA
TAF
KOMA 191133Z 1912/2012 VRB05KT 4SM BR OVC004
      TEMPO 1912/1913 1/4SM FG VV002
     FM191400 33012KT P6SM -RA SCT035 OVC060
     FM191700 33014G22KT P6SM SCT015 OVC025
     FM200100 33010KT P6SM SKC=



000
FTUS43 KOAX 191133
TAFLNK
TAF
KLNK 191133Z 1912/2012 33010KT P6SM -RA SCT040 OVC070
     FM191600 33014G24KT P6SM SCT015 BKN050
      TEMPO 1916/1920 4SM -RA BKN015
     FM200100 33010KT P6SM SKC=



000
FTUS43 KOAX 191133
TAFOFK
TAF
KOFK 191133Z 1912/2012 33014G22KT P6SM BKN015
      TEMPO 1914/1918 5SM -RA SCT015 OVC050
     FM191800 33020G30KT P6SM SCT025 BKN060
     FM200100 33012KT P6SM SKC=



000
FTUS43 KOAX 191133
TAFOMA
TAF
KOMA 191133Z 1912/2012 VRB05KT 4SM BR OVC004
      TEMPO 1912/1913 1/4SM FG VV002
     FM191400 33012KT P6SM -RA SCT035 OVC060
     FM191700 33014G22KT P6SM SCT015 OVC025
     FM200100 33010KT P6SM SKC=



000
FTUS43 KOAX 191133
TAFLNK
TAF
KLNK 191133Z 1912/2012 33010KT P6SM -RA SCT040 OVC070
     FM191600 33014G24KT P6SM SCT015 BKN050
      TEMPO 1916/1920 4SM -RA BKN015
     FM200100 33010KT P6SM SKC=



000
FTUS43 KOAX 191133
TAFOFK
TAF
KOFK 191133Z 1912/2012 33014G22KT P6SM BKN015
      TEMPO 1914/1918 5SM -RA SCT015 OVC050
     FM191800 33020G30KT P6SM SCT025 BKN060
     FM200100 33012KT P6SM SKC=



000
FTUS43 KOAX 191108 AAC
TAFOMA
TAF AMD
KOMA 191108Z 1911/2006 VRB05KT 4SM BR OVC005
      TEMPO 1911/1913 1/4SM FG VV002
     FM191400 33010KT 6SM -SHRA OVC025
     FM191700 34017G25KT 6SM -SHRA BKN025 OVC040
     FM200000 33014KT P6SM BKN090=



000
FTUS43 KOAX 190939 AAB
TAFOMA
TAF AMD
KOMA 190939Z 1910/2006 VRB05KT 4SM BR OVC005
      TEMPO 1910/1913 1/2SM FG VV002
     FM191400 33010KT 6SM -SHRA OVC025
     FM191700 34017G25KT 6SM -SHRA BKN025 OVC040
     FM200000 33014KT P6SM BKN090=



000
FTUS43 KOAX 190939 AAB
TAFOMA
TAF AMD
KOMA 190939Z 1910/2006 VRB05KT 4SM BR OVC005
      TEMPO 1910/1913 1/2SM FG VV002
     FM191400 33010KT 6SM -SHRA OVC025
     FM191700 34017G25KT 6SM -SHRA BKN025 OVC040
     FM200000 33014KT P6SM BKN090=



000
FTUS43 KOAX 190802 AAA
TAFOFK
TAF AMD
KOFK 190802Z 1908/2006 VRB05KT P6SM SCT015 BKN080
      TEMPO 1911/1914 4SM -SHRA BKN015
     FM191400 33016G26KT P6SM OVC025
     FM191700 34020G30KT P6SM SCT030 BKN080
     FM192300 33015KT P6SM SCT070 SCT250=



000
FTUS43 KOAX 190802 AAA
TAFLNK
TAF AMD
KLNK 190802Z 1908/2006 VRB05KT P6SM SCT030 BKN100
     FM191300 33010KT 6SM BR BKN025
      TEMPO 1913/1916 4SM -SHRA BR BKN015
     FM191600 34018G28KT 6SM -SHRA BKN025 OVC040
     FM200000 34014KT P6SM BKN090=



000
FTUS43 KOAX 190802 AAA
TAFOMA
TAF AMD
KOMA 190802Z 1908/2006 VRB05KT P6SM OVC007
      TEMPO 1911/1914 4SM -SHRA BKN015
     FM191400 33010KT 6SM -SHRA OVC025
     FM191700 34017G25KT 6SM -SHRA BKN025 OVC040
     FM200000 33014KT P6SM BKN090=



000
FTUS43 KOAX 190802 AAA
TAFLNK
TAF AMD
KLNK 190802Z 1908/2006 VRB05KT P6SM SCT030 BKN100
     FM191300 33010KT 6SM BR BKN025
      TEMPO 1913/1916 4SM -SHRA BR BKN015
     FM191600 34018G28KT 6SM -SHRA BKN025 OVC040
     FM200000 34014KT P6SM BKN090=



000
FTUS43 KOAX 190802 AAA
TAFOFK
TAF AMD
KOFK 190802Z 1908/2006 VRB05KT P6SM SCT015 BKN080
      TEMPO 1911/1914 4SM -SHRA BKN015
     FM191400 33016G26KT P6SM OVC025
     FM191700 34020G30KT P6SM SCT030 BKN080
     FM192300 33015KT P6SM SCT070 SCT250=



000
FTUS43 KOAX 190802 AAA
TAFOFK
TAF AMD
KOFK 190802Z 1908/2006 VRB05KT P6SM SCT015 BKN080
      TEMPO 1911/1914 4SM -SHRA BKN015
     FM191400 33016G26KT P6SM OVC025
     FM191700 34020G30KT P6SM SCT030 BKN080
     FM192300 33015KT P6SM SCT070 SCT250=



000
FTUS43 KOAX 190802 AAA
TAFLNK
TAF AMD
KLNK 190802Z 1908/2006 VRB05KT P6SM SCT030 BKN100
     FM191300 33010KT 6SM BR BKN025
      TEMPO 1913/1916 4SM -SHRA BR BKN015
     FM191600 34018G28KT 6SM -SHRA BKN025 OVC040
     FM200000 34014KT P6SM BKN090=



000
FTUS43 KOAX 190802 AAA
TAFOMA
TAF AMD
KOMA 190802Z 1908/2006 VRB05KT P6SM OVC007
      TEMPO 1911/1914 4SM -SHRA BKN015
     FM191400 33010KT 6SM -SHRA OVC025
     FM191700 34017G25KT 6SM -SHRA BKN025 OVC040
     FM200000 33014KT P6SM BKN090=



000
FTUS43 KOAX 190802 AAA
TAFOMA
TAF AMD
KOMA 190802Z 1908/2006 VRB05KT P6SM OVC007
      TEMPO 1911/1914 4SM -SHRA BKN015
     FM191400 33010KT 6SM -SHRA OVC025
     FM191700 34017G25KT 6SM -SHRA BKN025 OVC040
     FM200000 33014KT P6SM BKN090=



000
FTUS43 KOAX 190522
TAFOFK
TAF
KOFK 190522Z 1906/2006 18006KT P6SM SCT020 OVC050
      TEMPO 1906/1909 5SM -SHRA BKN020
     FM190900 31008KT P6SM OVC025
      TEMPO 1910/1914 4SM SHRA BKN015
     FM191400 33016G26KT P6SM OVC025
     FM191700 34020G30KT P6SM SCT030 BKN080
     FM192300 33015KT P6SM SCT070 SCT250=



000
FTUS43 KOAX 190522
TAFOMA
TAF
KOMA 190522Z 1906/2006 16006KT P6SM BKN025 OVC070
     FM191000 04005KT 5SM BR SCT015 BKN070
      TEMPO 1910/1914 4SM -SHRA BKN015
     FM191400 33010KT 6SM -SHRA OVC025
     FM191700 34017G25KT 6SM -SHRA BKN025 OVC040
     FM200000 33014KT P6SM BKN090=



000
FTUS43 KOAX 190522
TAFLNK
TAF
KLNK 190522Z 1906/2006 21006KT P6SM BKN030
      TEMPO 1909/1913 4SM -SHRA BKN025
     FM191300 33010KT 6SM BR BKN025
      TEMPO 1913/1916 4SM -SHRA BR BKN015
     FM191600 34018G28KT 6SM -SHRA BKN025 OVC040
     FM200000 34014KT P6SM BKN090=



000
FTUS43 KOAX 190522
TAFOFK
TAF
KOFK 190522Z 1906/2006 18006KT P6SM SCT020 OVC050
      TEMPO 1906/1909 5SM -SHRA BKN020
     FM190900 31008KT P6SM OVC025
      TEMPO 1910/1914 4SM SHRA BKN015
     FM191400 33016G26KT P6SM OVC025
     FM191700 34020G30KT P6SM SCT030 BKN080
     FM192300 33015KT P6SM SCT070 SCT250=



000
FTUS43 KOAX 190522
TAFOMA
TAF
KOMA 190522Z 1906/2006 16006KT P6SM BKN025 OVC070
     FM191000 04005KT 5SM BR SCT015 BKN070
      TEMPO 1910/1914 4SM -SHRA BKN015
     FM191400 33010KT 6SM -SHRA OVC025
     FM191700 34017G25KT 6SM -SHRA BKN025 OVC040
     FM200000 33014KT P6SM BKN090=



000
FTUS43 KOAX 190522
TAFLNK
TAF
KLNK 190522Z 1906/2006 21006KT P6SM BKN030
      TEMPO 1909/1913 4SM -SHRA BKN025
     FM191300 33010KT 6SM BR BKN025
      TEMPO 1913/1916 4SM -SHRA BR BKN015
     FM191600 34018G28KT 6SM -SHRA BKN025 OVC040
     FM200000 34014KT P6SM BKN090=



000
FTUS43 KOAX 190401 AAC
TAFLNK
TAF AMD
KLNK 190401Z 1904/1924 21006KT P6SM BKN035
      TEMPO 1904/1907 4SM -SHRA BKN025
     FM190700 VRB05KT 5SM BR OVC040
     FM191200 33010KT 6SM BR BKN025
      TEMPO 1912/1916 4SM -SHRA BR BKN015
     FM191600 34018G28KT 6SM -SHRA BKN025 OVC040=



000
FTUS43 KOAX 190349 AAB
TAFLNK
TAF AMD
KLNK 190349Z 1904/1924 17006KT P6SM BKN035
      TEMPO 1904/1907 4SM -SHRA BKN025
     FM190700 14005KT 5SM BR OVC040
     FM191200 33010KT 6SM BR BKN025
      TEMPO 1912/1916 4SM -SHRA BR BKN015
     FM191600 34018G26KT 6SM -SHRA BKN025 OVC040=



000
FTUS43 KOAX 190315 AAB
TAFOMA
TAF AMD
KOMA 190315Z 1903/1924 16006KT P6SM BKN025 OVC070
     FM191000 04005KT 5SM BR SCT015 BKN070
      TEMPO 1910/1914 4SM -SHRA BKN015
     FM191400 33010KT P6SM OVC025 PROB30 1914/1917 4SM -SHRA
     FM191700 34017G25KT 6SM -SHRA BKN025 OVC040=



000
FTUS43 KOAX 190315 AAB
TAFOMA
TAF AMD
KOMA 190315Z 1903/1924 16006KT P6SM BKN025 OVC070
     FM191000 04005KT 5SM BR SCT015 BKN070
      TEMPO 1910/1914 4SM -SHRA BKN015
     FM191400 33010KT P6SM OVC025 PROB30 1914/1917 4SM -SHRA
     FM191700 34017G25KT 6SM -SHRA BKN025 OVC040=



000
FTUS43 KOAX 190315 AAB
TAFOMA
TAF AMD
KOMA 190315Z 1903/1924 16006KT P6SM BKN025 OVC070
     FM191000 04005KT 5SM BR SCT015 BKN070
      TEMPO 1910/1914 4SM -SHRA BKN015
     FM191400 33010KT P6SM OVC025 PROB30 1914/1917 4SM -SHRA
     FM191700 34017G25KT 6SM -SHRA BKN025 OVC040=



000
FTUS43 KOAX 190301 AAA
TAFLNK
TAF AMD
KLNK 190301Z 1903/1924 14008KT P6SM BKN035
      TEMPO 1904/1907 4SM -TSRA BKN025CB
     FM190700 14005KT 5SM BR OVC040
     FM191200 33010KT 6SM BR BKN025 PROB30 1912/1916 4SM -SHRA BR
      BKN015
     FM191600 34018G26KT 6SM -SHRA BKN025 OVC040=



000
FTUS43 KOAX 190301 AAA
TAFLNK
TAF AMD
KLNK 190301Z 1903/1924 14008KT P6SM BKN035
      TEMPO 1904/1907 4SM -TSRA BKN025CB
     FM190700 14005KT 5SM BR OVC040
     FM191200 33010KT 6SM BR BKN025 PROB30 1912/1916 4SM -SHRA BR
      BKN015
     FM191600 34018G26KT 6SM -SHRA BKN025 OVC040=



000
FTUS43 KOAX 190119 AAA
TAFOFK
TAF AMD
KOFK 190119Z 1901/1924 15007KT P6SM SCT020 BKN150
     FM190500 18006KT P6SM SCT020 OVC050
      TEMPO 1905/1909 5SM -SHRA BKN020
     FM190900 31008KT P6SM OVC025
      TEMPO 1910/1914 4SM SHRA
     FM191400 33016G26KT P6SM OVC025
     FM191700 34020G30KT P6SM BKN035=



000
FTUS43 KOAX 190119 AAA
TAFOFK
TAF AMD
KOFK 190119Z 1901/1924 15007KT P6SM SCT020 BKN150
     FM190500 18006KT P6SM SCT020 OVC050
      TEMPO 1905/1909 5SM -SHRA BKN020
     FM190900 31008KT P6SM OVC025
      TEMPO 1910/1914 4SM SHRA
     FM191400 33016G26KT P6SM OVC025
     FM191700 34020G30KT P6SM BKN035=



000
FTUS43 KOAX 190031 AAA
TAFOMA
TAF AMD
KOMA 190031Z 1901/1924 14007KT P6SM BKN025 OVC070
     FM190400 16005KT 5SM BR SCT015 BKN070 PROB30 1910/1914 4SM
      -SHRA BKN025
     FM191400 33010KT P6SM OVC025 PROB30 1914/1917 4SM -SHRA
     FM191700 34017G25KT 6SM -SHRA BKN025 OVC040=



000
FTUS43 KOAX 190031 AAA
TAFOMA
TAF AMD
KOMA 190031Z 1901/1924 14007KT P6SM BKN025 OVC070
     FM190400 16005KT 5SM BR SCT015 BKN070 PROB30 1910/1914 4SM
      -SHRA BKN025
     FM191400 33010KT P6SM OVC025 PROB30 1914/1917 4SM -SHRA
     FM191700 34017G25KT 6SM -SHRA BKN025 OVC040=



000
FTUS43 KOAX 190031 AAA
TAFOMA
TAF AMD
KOMA 190031Z 1901/1924 14007KT P6SM BKN025 OVC070
     FM190400 16005KT 5SM BR SCT015 BKN070 PROB30 1910/1914 4SM
      -SHRA BKN025
     FM191400 33010KT P6SM OVC025 PROB30 1914/1917 4SM -SHRA
     FM191700 34017G25KT 6SM -SHRA BKN025 OVC040=



000
FTUS43 KOAX 182320
TAFOMA
TAF
KOMA 182320Z 1900/1924 14007KT P6SM SCT025 OVC070
      TEMPO 1901/1904 4SM BR
     FM190400 16005KT 5SM BR SCT015 BKN070 PROB30 1909/1914 4SM
      -SHRA BKN025
     FM191400 33010KT P6SM OVC025 PROB30 1914/1917 4SM -SHRA
     FM191700 34017G25KT 6SM -SHRA BKN025 OVC040=



000
FTUS43 KOAX 182320
TAFLNK
TAF
KLNK 182320Z 1900/1924 12008KT P6SM BKN035
     FM190200 16007KT P6SM SCT025 OVC050
      TEMPO 1902/1905 4SM TSRA BKN025CB
     FM190500 17005KT 5SM BR OVC040
     FM191200 33010KT 6SM BR BKN025 PROB30 1912/1916 4SM -SHRA BR
      BKN015
     FM191600 34018G26KT 6SM -SHRA BKN025 OVC040=



000
FTUS43 KOAX 182320
TAFLNK
TAF
KLNK 182320Z 1900/1924 12008KT P6SM BKN035
     FM190200 16007KT P6SM SCT025 OVC050
      TEMPO 1902/1905 4SM TSRA BKN025CB
     FM190500 17005KT 5SM BR OVC040
     FM191200 33010KT 6SM BR BKN025 PROB30 1912/1916 4SM -SHRA BR
      BKN015
     FM191600 34018G26KT 6SM -SHRA BKN025 OVC040=



000
FTUS43 KOAX 182320
TAFOMA
TAF
KOMA 182320Z 1900/1924 14007KT P6SM SCT025 OVC070
      TEMPO 1901/1904 4SM BR
     FM190400 16005KT 5SM BR SCT015 BKN070 PROB30 1909/1914 4SM
      -SHRA BKN025
     FM191400 33010KT P6SM OVC025 PROB30 1914/1917 4SM -SHRA
     FM191700 34017G25KT 6SM -SHRA BKN025 OVC040=



000
FTUS43 KOAX 182320
TAFOFK
TAF
KOFK 182320Z 1900/1924 15007KT P6SM BKN018 OVC090
     FM190400 18006KT P6SM OVC050
     FM191000 31011KT P6SM OVC025
      TEMPO 1910/1914 4SM SHRA
     FM191400 33015G25KT P6SM OVC025
     FM191700 34020G30KT P6SM BKN035=



000
FTUS43 KOAX 182320
TAFOFK
TAF
KOFK 182320Z 1900/1924 15007KT P6SM BKN018 OVC090
     FM190400 18006KT P6SM OVC050
     FM191000 31011KT P6SM OVC025
      TEMPO 1910/1914 4SM SHRA
     FM191400 33015G25KT P6SM OVC025
     FM191700 34020G30KT P6SM BKN035=



000
FTUS43 KOAX 182123 AAB
TAFLNK
TAF AMD
KLNK 182123Z 1821/1918 12008KT P6SM SCT015 OVC035
      TEMPO 1822/1901 BKN015
     FM190100 16007KT P6SM VCTS FEW025CB OVC050
     FM190500 17005KT 5SM BR OVC040
     FM191000 33007KT 6SM BR BKN025 PROB30 1910/1914 4SM -SHRA BR
      BKN015
     FM191400 36014KT P6SM OVC025 PROB30 1914/1918 -SHRA BKN020=



000
FTUS43 KOAX 182123 AAB
TAFLNK
TAF AMD
KLNK 182123Z 1821/1918 12008KT P6SM SCT015 OVC035
      TEMPO 1822/1901 BKN015
     FM190100 16007KT P6SM VCTS FEW025CB OVC050
     FM190500 17005KT 5SM BR OVC040
     FM191000 33007KT 6SM BR BKN025 PROB30 1910/1914 4SM -SHRA BR
      BKN015
     FM191400 36014KT P6SM OVC025 PROB30 1914/1918 -SHRA BKN020=



000
FTUS43 KOAX 182118 AAA
TAFOMA
TAF AMD
KOMA 182118Z 1821/1918 VRB05KT P6SM SCT025 OVC070
      TEMPO 1821/1823 5SM -SHRA BKN025
     FM190100 15006KT 6SM BR OVC050
     FM190500 16005KT 5SM BR SCT015 BKN100 PROB30 1909/1914 4SM
      -SHRA BKN025
     FM191400 33012KT P6SM OVC025 PROB30 1914/1918 -SHRA BKN020=



000
FTUS43 KOAX 182118 AAA
TAFOMA
TAF AMD
KOMA 182118Z 1821/1918 VRB05KT P6SM SCT025 OVC070
      TEMPO 1821/1823 5SM -SHRA BKN025
     FM190100 15006KT 6SM BR OVC050
     FM190500 16005KT 5SM BR SCT015 BKN100 PROB30 1909/1914 4SM
      -SHRA BKN025
     FM191400 33012KT P6SM OVC025 PROB30 1914/1918 -SHRA BKN020=



000
FTUS43 KOAX 182003 AAA
TAFLNK
TAF AMD
KLNK 182003Z 1820/1918 12008KT P6SM VCSH BKN015 OVC035
      TEMPO 1821/1822 BKN030
     FM182200 16007KT P6SM OVC050
     FM190500 17005KT 5SM BR OVC040 PROB30 1909/1914 31008KT -SHRA
      BKN025
     FM191400 36014KT P6SM OVC025 PROB30 1914/1918 -SHRA BKN020=



000
FTUS43 KOAX 182003 AAA
TAFLNK
TAF AMD
KLNK 182003Z 1820/1918 12008KT P6SM VCSH BKN015 OVC035
      TEMPO 1821/1822 BKN030
     FM182200 16007KT P6SM OVC050
     FM190500 17005KT 5SM BR OVC040 PROB30 1909/1914 31008KT -SHRA
      BKN025
     FM191400 36014KT P6SM OVC025 PROB30 1914/1918 -SHRA BKN020=



000
FTUS43 KOAX 181943 AAA
TAFOFK
TAF AMD
KOFK 181943Z 1820/1918 15007KT P6SM BKN018 OVC090
     FM190400 18006KT P6SM OVC050 PROB30 1906/1910 24007KT -SHRA
      BKN040
     FM191000 31011KT P6SM OVC025
     FM191200 33015G25KT P6SM OVC025
     FM191600 34020G28KT P6SM BKN035=



000
FTUS43 KOAX 181943 AAA
TAFOFK
TAF AMD
KOFK 181943Z 1820/1918 15007KT P6SM BKN018 OVC090
     FM190400 18006KT P6SM OVC050 PROB30 1906/1910 24007KT -SHRA
      BKN040
     FM191000 31011KT P6SM OVC025
     FM191200 33015G25KT P6SM OVC025
     FM191600 34020G28KT P6SM BKN035=



000
FTUS43 KOAX 181943 AAA
TAFOFK
TAF AMD
KOFK 181943Z 1820/1918 15007KT P6SM BKN018 OVC090
     FM190400 18006KT P6SM OVC050 PROB30 1906/1910 24007KT -SHRA
      BKN040
     FM191000 31011KT P6SM OVC025
     FM191200 33015G25KT P6SM OVC025
     FM191600 34020G28KT P6SM BKN035=



000
FTUS43 KOAX 181943 AAA
TAFOFK
TAF AMD
KOFK 181943Z 1820/1918 15007KT P6SM BKN018 OVC090
     FM190400 18006KT P6SM OVC050 PROB30 1906/1910 24007KT -SHRA
      BKN040
     FM191000 31011KT P6SM OVC025
     FM191200 33015G25KT P6SM OVC025
     FM191600 34020G28KT P6SM BKN035=



000
FTUS43 KOAX 181748 CCA
TAFLNK
TAF COR
KLNK 181748Z 1818/1918 10006KT P6SM VCSH SCT010 OVC090
      TEMPO 1818/1819 BKN010
     FM182000 16007KT P6SM OVC050
     FM190500 17005KT 5SM BR OVC040 PROB30 1909/1914 31008KT -SHRA
      BKN025
     FM191400 36014KT P6SM OVC025 PROB30 1914/1918 -SHRA BKN020=



000
FTUS43 KOAX 181731
TAFLNK
TAF
KLNK 181731Z 1818/1918 10006KT P6SM SCT010 OVC090
      TEMPO 1818/1819 BKN010
     FM182000 16007KT P6SM OVC050
     FM190500 17005KT 5SM BR OVC040 PROB30 1909/1914 31008KT -SHRA
      BKN025
     FM191400 36014KT P6SM OVC025 PROB30 1914/1918 -SHRA BKN020=



000
FTUS43 KOAX 181731
TAFLNK
TAF
KLNK 181731Z 1818/1918 10006KT P6SM SCT010 OVC090
      TEMPO 1818/1819 BKN010
     FM182000 16007KT P6SM OVC050
     FM190500 17005KT 5SM BR OVC040 PROB30 1909/1914 31008KT -SHRA
      BKN025
     FM191400 36014KT P6SM OVC025 PROB30 1914/1918 -SHRA BKN020=



000
FTUS43 KOAX 181731
TAFLNK
TAF
KLNK 181731Z 1818/1918 10006KT P6SM SCT010 OVC090
      TEMPO 1818/1819 BKN010
     FM182000 16007KT P6SM OVC050
     FM190500 17005KT 5SM BR OVC040 PROB30 1909/1914 31008KT -SHRA
      BKN025
     FM191400 36014KT P6SM OVC025 PROB30 1914/1918 -SHRA BKN020=



000
FTUS43 KOAX 181731
TAFLNK
TAF
KLNK 181731Z 1818/1918 10006KT P6SM SCT010 OVC090
      TEMPO 1818/1819 BKN010
     FM182000 16007KT P6SM OVC050
     FM190500 17005KT 5SM BR OVC040 PROB30 1909/1914 31008KT -SHRA
      BKN025
     FM191400 36014KT P6SM OVC025 PROB30 1914/1918 -SHRA BKN020=



000
FTUS43 KOAX 181731
TAFOMA
TAF
KOMA 181731Z 1818/1918 VRB05KT P6SM -SHRA SCT030 OVC070
      TEMPO 1818/1822 5SM -SHRA BKN030
     FM190100 15006KT P6SM OVC050 PROB30 1909/1914 -SHRA BKN025
     FM191400 33012KT P6SM OVC025 PROB30 1914/1918 -SHRA BKN020=



000
FTUS43 KOAX 181731
TAFOFK
TAF
KOFK 181731Z 1818/1918 15007KT P6SM OVC090 PROB30 1906/1910 24007KT
      -SHRA BKN040
     FM191000 31011KT P6SM OVC025
     FM191200 33015G25KT P6SM OVC025
     FM191600 34020G28KT P6SM BKN035=



000
FTUS43 KOAX 181731
TAFOMA
TAF
KOMA 181731Z 1818/1918 VRB05KT P6SM -SHRA SCT030 OVC070
      TEMPO 1818/1822 5SM -SHRA BKN030
     FM190100 15006KT P6SM OVC050 PROB30 1909/1914 -SHRA BKN025
     FM191400 33012KT P6SM OVC025 PROB30 1914/1918 -SHRA BKN020=



000
FTUS43 KOAX 181731
TAFOFK
TAF
KOFK 181731Z 1818/1918 15007KT P6SM OVC090 PROB30 1906/1910 24007KT
      -SHRA BKN040
     FM191000 31011KT P6SM OVC025
     FM191200 33015G25KT P6SM OVC025
     FM191600 34020G28KT P6SM BKN035=



000
FTUS43 KOAX 181731
TAFOFK
TAF
KOFK 181731Z 1818/1918 15007KT P6SM OVC090 PROB30 1906/1910 24007KT
      -SHRA BKN040
     FM191000 31011KT P6SM OVC025
     FM191200 33015G25KT P6SM OVC025
     FM191600 34020G28KT P6SM BKN035=



000
FTUS43 KOAX 181731
TAFOMA
TAF
KOMA 181731Z 1818/1918 VRB05KT P6SM -SHRA SCT030 OVC070
      TEMPO 1818/1822 5SM -SHRA BKN030
     FM190100 15006KT P6SM OVC050 PROB30 1909/1914 -SHRA BKN025
     FM191400 33012KT P6SM OVC025 PROB30 1914/1918 -SHRA BKN020=



000
FTUS43 KOAX 181731
TAFOFK
TAF
KOFK 181731Z 1818/1918 15007KT P6SM OVC090 PROB30 1906/1910 24007KT
      -SHRA BKN040
     FM191000 31011KT P6SM OVC025
     FM191200 33015G25KT P6SM OVC025
     FM191600 34020G28KT P6SM BKN035=



000
FTUS43 KOAX 181605 AAA
TAFOFK
TAF AMD
KOFK 181605Z 1816/1912 10005KT 4SM -SHRA SCT015 OVC025
      TEMPO 1816/1818 P6SM NSW SCT025 OVC090
     FM181800 18008KT P6SM OVC045
     FM190100 16005KT P6SM OVC100
     FM191000 32013G20KT P6SM OVC025=



000
FTUS43 KOAX 181605 AAA
TAFOFK
TAF AMD
KOFK 181605Z 1816/1912 10005KT 4SM -SHRA SCT015 OVC025
      TEMPO 1816/1818 P6SM NSW SCT025 OVC090
     FM181800 18008KT P6SM OVC045
     FM190100 16005KT P6SM OVC100
     FM191000 32013G20KT P6SM OVC025=



000
FTUS43 KOAX 181605 AAA
TAFOFK
TAF AMD
KOFK 181605Z 1816/1912 10005KT 4SM -SHRA SCT015 OVC025
      TEMPO 1816/1818 P6SM NSW SCT025 OVC090
     FM181800 18008KT P6SM OVC045
     FM190100 16005KT P6SM OVC100
     FM191000 32013G20KT P6SM OVC025=



000
FTUS43 KOAX 181603 AAA
TAFOMA
TAF AMD
KOMA 181603Z 1816/1912 18006KT 5SM -SHRA FEW015 SCT040 OVC070
      TEMPO 1816/1818 2SM TSRA BKN030CB
     FM181800 14005KT 6SM -SHRA OVC025
     FM190300 15006KT P6SM OVC050
     FM191100 32006KT P6SM OVC040=



000
FTUS43 KOAX 181601 AAA
TAFLNK
TAF AMD
KLNK 181601Z 1816/1912 14006KT P6SM SCT025 OVC090
      TEMPO 1816/1820 16006KT 5SM -SHRA BKN025
     FM182000 19007KT P6SM OVC050
     FM190200 VRB04KT P6SM OVC090
     FM191100 33008KT P6SM OVC040=



000
FTUS43 KOAX 181601 AAA
TAFLNK
TAF AMD
KLNK 181601Z 1816/1912 14006KT P6SM SCT025 OVC090
      TEMPO 1816/1820 16006KT 5SM -SHRA BKN025
     FM182000 19007KT P6SM OVC050
     FM190200 VRB04KT P6SM OVC090
     FM191100 33008KT P6SM OVC040=



000
FTUS43 KOAX 181122
TAFOFK
TAF
KOFK 181122Z 1812/1912 10005KT P6SM BKN045 OVC080
      TEMPO 1812/1816 4SM TSRA BKN035CB
     FM181600 12008KT 4SM -RA BR OVC015
     FM182000 18008KT P6SM OVC045
      TEMPO 1821/1901 3SM TSRA OVC025CB
     FM190100 16005KT P6SM OVC100
     FM191000 32013G20KT P6SM OVC025=



000
FTUS43 KOAX 181122
TAFLNK
TAF
KLNK 181122Z 1812/1912 14005KT P6SM SCT040 OVC100
      TEMPO 1812/1816 4SM TSRA OVC035CB
     FM181600 16006KT 5SM -SHRA OVC025
     FM182000 19007KT P6SM OVC050 PROB30 1821/1902 4SM TSRA BKN030CB
     FM190200 VRB04KT P6SM OVC090
     FM191100 33008KT P6SM OVC040=



000
FTUS43 KOAX 181122
TAFOFK
TAF
KOFK 181122Z 1812/1912 10005KT P6SM BKN045 OVC080
      TEMPO 1812/1816 4SM TSRA BKN035CB
     FM181600 12008KT 4SM -RA BR OVC015
     FM182000 18008KT P6SM OVC045
      TEMPO 1821/1901 3SM TSRA OVC025CB
     FM190100 16005KT P6SM OVC100
     FM191000 32013G20KT P6SM OVC025=



000
FTUS43 KOAX 181122
TAFOMA
TAF
KOMA 181122Z 1812/1912 12005KT P6SM SCT050 BKN090
      TEMPO 1814/1818 4SM TSRA BKN040CB
     FM181800 14005KT 6SM -SHRA OVC025 PROB30 1822/1903 4SM TSRA
      BKN015CB
     FM190300 15006KT P6SM OVC050
     FM191100 32006KT P6SM OVC040=



000
FTUS43 KOAX 181122
TAFLNK
TAF
KLNK 181122Z 1812/1912 14005KT P6SM SCT040 OVC100
      TEMPO 1812/1816 4SM TSRA OVC035CB
     FM181600 16006KT 5SM -SHRA OVC025
     FM182000 19007KT P6SM OVC050 PROB30 1821/1902 4SM TSRA BKN030CB
     FM190200 VRB04KT P6SM OVC090
     FM191100 33008KT P6SM OVC040=



000
FTUS43 KOAX 181122
TAFOMA
TAF
KOMA 181122Z 1812/1912 12005KT P6SM SCT050 BKN090
      TEMPO 1814/1818 4SM TSRA BKN040CB
     FM181800 14005KT 6SM -SHRA OVC025 PROB30 1822/1903 4SM TSRA
      BKN015CB
     FM190300 15006KT P6SM OVC050
     FM191100 32006KT P6SM OVC040=



000
FTUS43 KOAX 181122
TAFOMA
TAF
KOMA 181122Z 1812/1912 12005KT P6SM SCT050 BKN090
      TEMPO 1814/1818 4SM TSRA BKN040CB
     FM181800 14005KT 6SM -SHRA OVC025 PROB30 1822/1903 4SM TSRA
      BKN015CB
     FM190300 15006KT P6SM OVC050
     FM191100 32006KT P6SM OVC040=



000
FTUS43 KOAX 181122
TAFOMA
TAF
KOMA 181122Z 1812/1912 12005KT P6SM SCT050 BKN090
      TEMPO 1814/1818 4SM TSRA BKN040CB
     FM181800 14005KT 6SM -SHRA OVC025 PROB30 1822/1903 4SM TSRA
      BKN015CB
     FM190300 15006KT P6SM OVC050
     FM191100 32006KT P6SM OVC040=



000
FTUS43 KOAX 181122
TAFLNK
TAF
KLNK 181122Z 1812/1912 14005KT P6SM SCT040 OVC100
      TEMPO 1812/1816 4SM TSRA OVC035CB
     FM181600 16006KT 5SM -SHRA OVC025
     FM182000 19007KT P6SM OVC050 PROB30 1821/1902 4SM TSRA BKN030CB
     FM190200 VRB04KT P6SM OVC090
     FM191100 33008KT P6SM OVC040=



000
FTUS43 KOAX 181122
TAFOFK
TAF
KOFK 181122Z 1812/1912 10005KT P6SM BKN045 OVC080
      TEMPO 1812/1816 4SM TSRA BKN035CB
     FM181600 12008KT 4SM -RA BR OVC015
     FM182000 18008KT P6SM OVC045
      TEMPO 1821/1901 3SM TSRA OVC025CB
     FM190100 16005KT P6SM OVC100
     FM191000 32013G20KT P6SM OVC025=



000
FTUS43 KOAX 181122
TAFOFK
TAF
KOFK 181122Z 1812/1912 10005KT P6SM BKN045 OVC080
      TEMPO 1812/1816 4SM TSRA BKN035CB
     FM181600 12008KT 4SM -RA BR OVC015
     FM182000 18008KT P6SM OVC045
      TEMPO 1821/1901 3SM TSRA OVC025CB
     FM190100 16005KT P6SM OVC100
     FM191000 32013G20KT P6SM OVC025=



000
FTUS43 KOAX 181122
TAFLNK
TAF
KLNK 181122Z 1812/1912 14005KT P6SM SCT040 OVC100
      TEMPO 1812/1816 4SM TSRA OVC035CB
     FM181600 16006KT 5SM -SHRA OVC025
     FM182000 19007KT P6SM OVC050 PROB30 1821/1902 4SM TSRA BKN030CB
     FM190200 VRB04KT P6SM OVC090
     FM191100 33008KT P6SM OVC040=



000
FTUS43 KOAX 180817 AAA
TAFOFK
TAF AMD
KOFK 180817Z 1808/1906 06007KT P6SM BKN050 OVC080
      TEMPO 1808/1811 5SM -SHRA BKN040
     FM181100 08006KT P6SM SCT050 OVC120
      TEMPO 1811/1814 5SM -TSRA BKN035CB
     FM181400 11007KT 4SM -SHRA BR OVC025
     FM181800 15010KT P6SM BKN035 PROB30 1821/1903 3SM TSRA
      BKN020CB=



000
FTUS43 KOAX 180817 AAA
TAFOFK
TAF AMD
KOFK 180817Z 1808/1906 06007KT P6SM BKN050 OVC080
      TEMPO 1808/1811 5SM -SHRA BKN040
     FM181100 08006KT P6SM SCT050 OVC120
      TEMPO 1811/1814 5SM -TSRA BKN035CB
     FM181400 11007KT 4SM -SHRA BR OVC025
     FM181800 15010KT P6SM BKN035 PROB30 1821/1903 3SM TSRA
      BKN020CB=



000
FTUS43 KOAX 180808 AAA
TAFOMA
TAF AMD
KOMA 180808Z 1808/1906 VRB05KT P6SM BKN090
      TEMPO 1810/1813 5SM -SHRA BKN040
     FM181300 13007KT 6SM -SHRA BKN025 OVC060
     FM181800 14010KT P6SM SCT025
     FM182300 15008KT P6SM BKN050 PROB30 1823/1905 4SM TSRA
      BKN025CB=



000
FTUS43 KOAX 180808 AAA
TAFOMA
TAF AMD
KOMA 180808Z 1808/1906 VRB05KT P6SM BKN090
      TEMPO 1810/1813 5SM -SHRA BKN040
     FM181300 13007KT 6SM -SHRA BKN025 OVC060
     FM181800 14010KT P6SM SCT025
     FM182300 15008KT P6SM BKN050 PROB30 1823/1905 4SM TSRA
      BKN025CB=



000
FTUS43 KOAX 180805 AAA
TAFLNK
TAF AMD
KLNK 180805Z 1808/1906 10005KT P6SM BKN050 OVC150
     FM181300 10006KT 5SM -SHRA BKN025
     FM181800 16010KT P6SM BKN040 PROB30 1821/1903 4SM TSRA
      BKN025CB=



000
FTUS43 KOAX 180805 AAA
TAFLNK
TAF AMD
KLNK 180805Z 1808/1906 10005KT P6SM BKN050 OVC150
     FM181300 10006KT 5SM -SHRA BKN025
     FM181800 16010KT P6SM BKN040 PROB30 1821/1903 4SM TSRA
      BKN025CB=



000
FTUS43 KOAX 180805 AAA
TAFLNK
TAF AMD
KLNK 180805Z 1808/1906 10005KT P6SM BKN050 OVC150
     FM181300 10006KT 5SM -SHRA BKN025
     FM181800 16010KT P6SM BKN040 PROB30 1821/1903 4SM TSRA
      BKN025CB=



000
FTUS43 KOAX 180805 AAA
TAFLNK
TAF AMD
KLNK 180805Z 1808/1906 10005KT P6SM BKN050 OVC150
     FM181300 10006KT 5SM -SHRA BKN025
     FM181800 16010KT P6SM BKN040 PROB30 1821/1903 4SM TSRA
      BKN025CB=



000
FTUS43 KOAX 180520
TAFOMA
TAF
KOMA 180520Z 1806/1906 VRB05KT P6SM BKN070
     FM181000 09006KT P6SM -SHRA BKN050
      TEMPO 1810/1814 4SM TSRA BKN025CB
     FM181400 13008KT 6SM -SHRA BKN015 OVC030
     FM181800 14010KT P6SM SCT025
     FM182300 15008KT P6SM BKN050 PROB30 1823/1905 4SM TSRA
      BKN025CB=



000
FTUS43 KOAX 180520
TAFLNK
TAF
KLNK 180520Z 1806/1906 10005KT P6SM SCT050 BKN100
     FM180900 07005KT 6SM -SHRA SCT015 BKN050
      TEMPO 1809/1813 4SM TSRA BKN029CB
     FM181300 10006KT 4SM -SHRA BKN015
     FM181800 16010KT P6SM BKN040 PROB30 1821/1903 4SM TSRA
      BKN025CB=



000
FTUS43 KOAX 180520
TAFLNK
TAF
KLNK 180520Z 1806/1906 10005KT P6SM SCT050 BKN100
     FM180900 07005KT 6SM -SHRA SCT015 BKN050
      TEMPO 1809/1813 4SM TSRA BKN029CB
     FM181300 10006KT 4SM -SHRA BKN015
     FM181800 16010KT P6SM BKN040 PROB30 1821/1903 4SM TSRA
      BKN025CB=



000
FTUS43 KOAX 180520
TAFOMA
TAF
KOMA 180520Z 1806/1906 VRB05KT P6SM BKN070
     FM181000 09006KT P6SM -SHRA BKN050
      TEMPO 1810/1814 4SM TSRA BKN025CB
     FM181400 13008KT 6SM -SHRA BKN015 OVC030
     FM181800 14010KT P6SM SCT025
     FM182300 15008KT P6SM BKN050 PROB30 1823/1905 4SM TSRA
      BKN025CB=



000
FTUS43 KOAX 180520
TAFOFK
TAF
KOFK 180520Z 1806/1906 06007KT P6SM BKN050 OVC080
      TEMPO 1806/1810 4SM -SHRA BKN030
     FM181000 08006KT 6SM BR SCT025 BKN040
      TEMPO 1810/1814 4SM TSRA BKN015CB
     FM181400 11007KT 4SM -SHRA BR OVC015
     FM181800 15010KT P6SM BKN035 PROB30 1821/1903 3SM TSRA
      BKN020CB=



000
FTUS43 KOAX 180520
TAFOFK
TAF
KOFK 180520Z 1806/1906 06007KT P6SM BKN050 OVC080
      TEMPO 1806/1810 4SM -SHRA BKN030
     FM181000 08006KT 6SM BR SCT025 BKN040
      TEMPO 1810/1814 4SM TSRA BKN015CB
     FM181400 11007KT 4SM -SHRA BR OVC015
     FM181800 15010KT P6SM BKN035 PROB30 1821/1903 3SM TSRA
      BKN020CB=



000
FTUS43 KOAX 180409 AAA
TAFLNK
TAF AMD
KLNK 180409Z 1804/1824 10005KT P6SM SCT050 BKN100
      TEMPO 1805/1809 5SM -SHRA OVC040
     FM180900 07005KT 6SM -SHRA SCT015 BKN050
      TEMPO 1809/1813 4SM TSRA BKN029CB
     FM181300 10006KT 4SM -SHRA BKN015
     FM181800 16010KT P6SM SCT025 BKN040=



000
FTUS43 KOAX 180409 AAA
TAFLNK
TAF AMD
KLNK 180409Z 1804/1824 10005KT P6SM SCT050 BKN100
      TEMPO 1805/1809 5SM -SHRA OVC040
     FM180900 07005KT 6SM -SHRA SCT015 BKN050
      TEMPO 1809/1813 4SM TSRA BKN029CB
     FM181300 10006KT 4SM -SHRA BKN015
     FM181800 16010KT P6SM SCT025 BKN040=



000
FTUS43 KOAX 180350 AAA
TAFOMA
TAF AMD
KOMA 180350Z 1804/1824 VRB05KT P6SM BKN070
      TEMPO 1804/1808 5SM -SHRA OVC040
     FM181000 09006KT 6SM -SHRA BKN035
     FM181500 13008KT 6SM -SHRA BKN015 OVC030
     FM181800 14010KT P6SM SCT025=



000
FTUS43 KOAX 180350 AAA
TAFOMA
TAF AMD
KOMA 180350Z 1804/1824 VRB05KT P6SM BKN070
      TEMPO 1804/1808 5SM -SHRA OVC040
     FM181000 09006KT 6SM -SHRA BKN035
     FM181500 13008KT 6SM -SHRA BKN015 OVC030
     FM181800 14010KT P6SM SCT025=



000
FTUS43 KOAX 180347 AAA
TAFOFK
TAF AMD
KOFK 180347Z 1804/1824 06007KT P6SM BKN050 OVC080
      TEMPO 1804/1808 4SM -TSRA BR BKN025CB
     FM180800 08006KT 6SM BR SCT025 BKN040
      TEMPO 1808/1812 4SM TSRA BKN015CB
     FM181200 11007KT 4SM -SHRA BR OVC015
     FM181700 15010KT P6SM SCT015 BKN100=



000
FTUS43 KOAX 180347 AAA
TAFOFK
TAF AMD
KOFK 180347Z 1804/1824 06007KT P6SM BKN050 OVC080
      TEMPO 1804/1808 4SM -TSRA BR BKN025CB
     FM180800 08006KT 6SM BR SCT025 BKN040
      TEMPO 1808/1812 4SM TSRA BKN015CB
     FM181200 11007KT 4SM -SHRA BR OVC015
     FM181700 15010KT P6SM SCT015 BKN100=



    US Dept of Commerce
    National Oceanic and Atmospheric Administration
    National Weather Service
    1325 East West Highway
    Silver Spring, MD 20910
    Page Author: NWS Internet Services Team
Disclaimer
Information Quality
Credits
Glossary
Privacy Policy
Freedom of Information Act (FOIA)
About Us
Career Opportunities